sensor_id;sensor_type;location;lat;lon;timestamp;pressure;altitude;pressure_sealevel;temperature;humidity
42847;BME280;75159;49.916;14.536;2024-01-16T00:04:31;95509.88;;;-1.24;68.75
42847;BME280;75159;49.916;14.536;2024-01-16T00:14:52;95519.72;;;-1.17;68.34
42847;BME280;75159;49.916;14.536;2024-01-16T00:25:13;95547.75;;;-1.16;68.27
42847;BME280;75159;49.916;14.536;2024-01-16T00:35:34;95552.06;;;-1.16;67.95
42847;BME280;75159;49.916;14.536;2024-01-16T00:45:55;95566.06;;;-1.22;67.67
42847;BME280;75159;49.916;14.536;2024-01-16T00:56:16;95576.31;;;-1.22;67.52
42847;BME280;75159;49.916;14.536;2024-01-16T01:06:37;95569.25;;;-1.18;67.14
42847;BME280;75159;49.916;14.536;2024-01-16T01:16:58;95589.78;;;-1.20;67.46
42847;BME280;75159;49.916;14.536;2024-01-16T01:27:18;95598.34;;;-1.34;67.62
42847;BME280;75159;49.916;14.536;2024-01-16T01:37:40;95612.88;;;-1.34;67.36
42847;BME280;75159;49.916;14.536;2024-01-16T01:48:01;95623.19;;;-1.36;67.41
42847;BME280;75159;49.916;14.536;2024-01-16T01:58:27;95637.81;;;-1.38;67.13
42847;BME280;75159;49.916;14.536;2024-01-16T02:08:48;95655.53;;;-1.35;67.27
42847;BME280;75159;49.916;14.536;2024-01-16T02:19:10;95669.78;;;-1.31;67.55
42847;BME280;75159;49.916;14.536;2024-01-16T02:29:31;95665.84;;;-1.22;67.45
42847;BME280;75159;49.916;14.536;2024-01-16T02:39:52;95672.78;;;-1.24;67.64
42847;BME280;75159;49.916;14.536;2024-01-16T02:50:13;95686.38;;;-1.24;67.02
42847;BME280;75159;49.916;14.536;2024-01-16T03:00:34;95678.63;;;-1.22;66.93
42847;BME280;75159;49.916;14.536;2024-01-16T03:10:55;95689.31;;;-1.15;67.03
42847;BME280;75159;49.916;14.536;2024-01-16T03:21:15;95699.53;;;-1.15;67.03
42847;BME280;75159;49.916;14.536;2024-01-16T03:31:36;95733.16;;;-1.21;66.85
42847;BME280;75159;49.916;14.536;2024-01-16T03:41:57;95726.03;;;-1.16;67.34
42847;BME280;75159;49.916;14.536;2024-01-16T03:52:18;95729.81;;;-1.22;67.06
42847;BME280;75159;49.916;14.536;2024-01-16T04:02:39;95732.44;;;-1.24;67.35
42847;BME280;75159;49.916;14.536;2024-01-16T04:13:01;95746.97;;;-1.39;67.51
42847;BME280;75159;49.916;14.536;2024-01-16T04:23:22;95758.84;;;-1.38;67.63
42847;BME280;75159;49.916;14.536;2024-01-16T04:33:43;95777.41;;;-1.34;67.63
42847;BME280;75159;49.916;14.536;2024-01-16T04:44:05;95768.88;;;-1.34;67.89
42847;BME280;75159;49.916;14.536;2024-01-16T04:54:25;95778.31;;;-1.35;67.54
42847;BME280;75159;49.916;14.536;2024-01-16T05:04:46;95801.16;;;-1.32;67.39
42847;BME280;75159;49.916;14.536;2024-01-16T05:15:10;95800.78;;;-1.26;67.58
42847;BME280;75159;49.916;14.536;2024-01-16T05:25:35;95815.94;;;-1.23;67.63
42847;BME280;75159;49.916;14.536;2024-01-16T05:35:59;95808.72;;;-1.30;67.79
42847;BME280;75159;49.916;14.536;2024-01-16T05:46:20;95818.16;;;-1.31;67.60
42847;BME280;75159;49.916;14.536;2024-01-16T05:56:40;95831.47;;;-1.26;67.59
42847;BME280;75159;49.916;14.536;2024-01-16T06:07:02;95837.50;;;-1.27;67.65
42847;BME280;75159;49.916;14.536;2024-01-16T06:17:26;95852.78;;;-1.25;67.63
42847;BME280;75159;49.916;14.536;2024-01-16T06:27:47;95869.94;;;-1.27;67.16
42847;BME280;75159;49.916;14.536;2024-01-16T06:38:08;95871.22;;;-1.20;67.15
42847;BME280;75159;49.916;14.536;2024-01-16T06:48:29;95883.00;;;-1.32;67.04
42847;BME280;75159;49.916;14.536;2024-01-16T06:58:50;95892.03;;;-1.41;67.25
42847;BME280;75159;49.916;14.536;2024-01-16T07:09:11;95909.94;;;-1.41;67.09
42847;BME280;75159;49.916;14.536;2024-01-16T07:19:32;95920.91;;;-1.39;66.61
42847;BME280;75159;49.916;14.536;2024-01-16T07:29:53;95932.50;;;-1.33;66.92
42847;BME280;75159;49.916;14.536;2024-01-16T07:40:14;95946.03;;;-1.31;66.32
42847;BME280;75159;49.916;14.536;2024-01-16T07:50:37;95966.63;;;-1.18;66.70
42847;BME280;75159;49.916;14.536;2024-01-16T08:00:58;95982.38;;;-1.10;66.59
42847;BME280;75159;49.916;14.536;2024-01-16T08:11:19;95984.31;;;-0.99;66.25
42847;BME280;75159;49.916;14.536;2024-01-16T08:21:40;95981.69;;;-0.83;66.53
42847;BME280;75159;49.916;14.536;2024-01-16T08:32:01;96000.16;;;-0.78;66.40
42847;BME280;75159;49.916;14.536;2024-01-16T08:42:22;96011.69;;;-0.70;66.41
42847;BME280;75159;49.916;14.536;2024-01-16T08:52:43;96022.22;;;-0.60;65.98
42847;BME280;75159;49.916;14.536;2024-01-16T09:03:04;96037.84;;;-0.65;66.11
42847;BME280;75159;49.916;14.536;2024-01-16T09:13:25;96043.50;;;-0.60;66.27
42847;BME280;75159;49.916;14.536;2024-01-16T09:23:46;96046.28;;;-0.63;66.15
42847;BME280;75159;49.916;14.536;2024-01-16T09:34:06;96043.78;;;-0.65;66.04
42847;BME280;75159;49.916;14.536;2024-01-16T09:44:29;96053.69;;;-0.58;66.11
42847;BME280;75159;49.916;14.536;2024-01-16T09:54:50;96052.63;;;-0.40;66.37
42847;BME280;75159;49.916;14.536;2024-01-16T10:05:12;96045.94;;;-0.13;66.29
42847;BME280;75159;49.916;14.536;2024-01-16T10:15:34;96030.28;;;0.06;66.25
42847;BME280;75159;49.916;14.536;2024-01-16T10:26:06;96030.44;;;0.17;65.71
42847;BME280;75159;49.916;14.536;2024-01-16T10:36:27;96029.78;;;0.28;65.22
42847;BME280;75159;49.916;14.536;2024-01-16T10:46:49;96035.97;;;0.38;65.29
42847;BME280;75159;49.916;14.536;2024-01-16T10:57:12;96051.94;;;0.29;64.64
42847;BME280;75159;49.916;14.536;2024-01-16T11:07:35;96048.25;;;0.33;64.99
42847;BME280;75159;49.916;14.536;2024-01-16T11:17:59;96045.69;;;0.33;64.59
42847;BME280;75159;49.916;14.536;2024-01-16T11:28:27;96048.47;;;0.30;64.12
42847;BME280;75159;49.916;14.536;2024-01-16T11:38:55;96036.59;;;0.42;64.36
42847;BME280;75159;49.916;14.536;2024-01-16T11:49:20;96031.59;;;0.40;64.01
42847;BME280;75159;49.916;14.536;2024-01-16T12:00:04;96026.97;;;0.45;63.64
42847;BME280;75159;49.916;14.536;2024-01-16T12:10:46;96025.97;;;0.48;64.09
42847;BME280;75159;49.916;14.536;2024-01-16T12:21:11;96017.22;;;0.38;63.83
42847;BME280;75159;49.916;14.536;2024-01-16T12:31:34;96013.38;;;0.30;63.52
42847;BME280;75159;49.916;14.536;2024-01-16T12:41:55;96015.94;;;0.30;64.29
42847;BME280;75159;49.916;14.536;2024-01-16T12:52:17;96019.06;;;0.36;63.84
42847;BME280;75159;49.916;14.536;2024-01-16T13:02:49;96025.81;;;0.37;63.74
42847;BME280;75159;49.916;14.536;2024-01-16T13:13:14;96036.41;;;0.45;63.50
42847;BME280;75159;49.916;14.536;2024-01-16T13:23:36;96032.22;;;0.44;63.28
42847;BME280;75159;49.916;14.536;2024-01-16T13:33:57;96035.78;;;0.41;62.94
42847;BME280;75159;49.916;14.536;2024-01-16T13:44:18;96021.84;;;0.45;62.91
42847;BME280;75159;49.916;14.536;2024-01-16T13:54:39;96017.28;;;0.36;62.74
42847;BME280;75159;49.916;14.536;2024-01-16T14:05:00;96018.22;;;0.35;62.53
42847;BME280;75159;49.916;14.536;2024-01-16T14:15:21;96022.59;;;0.33;62.93
42847;BME280;75159;49.916;14.536;2024-01-16T14:25:46;96042.59;;;0.28;62.91
42847;BME280;75159;49.916;14.536;2024-01-16T14:36:07;96042.69;;;0.26;62.90
42847;BME280;75159;49.916;14.536;2024-01-16T14:46:28;96038.22;;;0.15;62.36
42847;BME280;75159;49.916;14.536;2024-01-16T14:56:49;96039.16;;;0.14;62.51
42847;BME280;75159;49.916;14.536;2024-01-16T15:07:10;96031.81;;;0.08;62.51
42847;BME280;75159;49.916;14.536;2024-01-16T15:17:31;96041.16;;;0.09;62.32
42847;BME280;75159;49.916;14.536;2024-01-16T15:27:52;96047.19;;;0.23;62.70
42847;BME280;75159;49.916;14.536;2024-01-16T15:38:16;96036.56;;;0.29;62.40
42847;BME280;75159;49.916;14.536;2024-01-16T15:48:37;96029.44;;;0.05;61.92
42847;BME280;75159;49.916;14.536;2024-01-16T15:59:00;96038.69;;;-0.07;62.40
42847;BME280;75159;49.916;14.536;2024-01-16T16:09:22;96046.66;;;0.03;62.48
42847;BME280;75159;49.916;14.536;2024-01-16T16:19:43;96060.81;;;0.23;62.74
42847;BME280;75159;49.916;14.536;2024-01-16T16:30:07;96067.63;;;-0.05;62.16
42847;BME280;75159;49.916;14.536;2024-01-16T16:40:28;96075.88;;;-0.14;62.69
42847;BME280;75159;49.916;14.536;2024-01-16T16:50:49;96076.59;;;-0.12;63.00
42847;BME280;75159;49.916;14.536;2024-01-16T17:01:11;96074.84;;;-0.11;62.69
42847;BME280;75159;49.916;14.536;2024-01-16T17:11:33;96086.63;;;-0.38;63.03
42847;BME280;75159;49.916;14.536;2024-01-16T17:21:54;96079.97;;;-0.40;63.14
42847;BME280;75159;49.916;14.536;2024-01-16T17:32:15;96089.81;;;-0.63;63.33
42847;BME280;75159;49.916;14.536;2024-01-16T17:42:35;96098.47;;;-0.66;63.53
42847;BME280;75159;49.916;14.536;2024-01-16T17:52:58;96102.69;;;-0.65;63.72
42847;BME280;75159;49.916;14.536;2024-01-16T18:03:21;96111.53;;;-0.70;63.41
42847;BME280;75159;49.916;14.536;2024-01-16T18:14:00;96122.22;;;-0.78;63.92
42847;BME280;75159;49.916;14.536;2024-01-16T18:24:22;96127.69;;;-0.84;63.59
42847;BME280;75159;49.916;14.536;2024-01-16T18:34:43;96110.81;;;-0.72;63.74
42847;BME280;75159;49.916;14.536;2024-01-16T18:45:05;96124.94;;;-0.81;63.99
42847;BME280;75159;49.916;14.536;2024-01-16T18:55:26;96129.34;;;-0.83;63.77
42847;BME280;75159;49.916;14.536;2024-01-16T19:05:47;96124.19;;;-0.67;64.04
42847;BME280;75159;49.916;14.536;2024-01-16T19:16:11;96114.59;;;-0.64;63.89
42847;BME280;75159;49.916;14.536;2024-01-16T19:26:33;96098.31;;;-0.63;63.85
42847;BME280;75159;49.916;14.536;2024-01-16T19:36:54;96086.97;;;-0.89;63.46
42847;BME280;75159;49.916;14.536;2024-01-16T19:47:16;96077.91;;;-0.95;63.93
42847;BME280;75159;49.916;14.536;2024-01-16T19:57:37;96082.66;;;-1.03;64.07
42847;BME280;75159;49.916;14.536;2024-01-16T20:07:59;96065.91;;;-1.25;63.69
42847;BME280;75159;49.916;14.536;2024-01-16T20:18:20;96056.09;;;-1.16;64.02
42847;BME280;75159;49.916;14.536;2024-01-16T20:28:41;96048.50;;;-1.18;63.42
42847;BME280;75159;49.916;14.536;2024-01-16T20:39:02;96046.78;;;-1.17;63.93
42847;BME280;75159;49.916;14.536;2024-01-16T20:49:24;96044.94;;;-0.85;63.54
42847;BME280;75159;49.916;14.536;2024-01-16T20:59:45;96039.38;;;-0.77;63.31
42847;BME280;75159;49.916;14.536;2024-01-16T21:10:06;96034.31;;;-0.93;62.70
42847;BME280;75159;49.916;14.536;2024-01-16T21:20:28;96028.88;;;-1.33;63.25
42847;BME280;75159;49.916;14.536;2024-01-16T21:30:49;96027.91;;;-1.47;62.72
42847;BME280;75159;49.916;14.536;2024-01-16T21:41:12;96041.38;;;-1.59;62.42
42847;BME280;75159;49.916;14.536;2024-01-16T21:51:33;96043.75;;;-1.72;62.85
42847;BME280;75159;49.916;14.536;2024-01-16T22:01:54;96035.56;;;-2.11;62.93
42847;BME280;75159;49.916;14.536;2024-01-16T22:12:15;96015.88;;;-2.09;62.91
42847;BME280;75159;49.916;14.536;2024-01-16T22:22:36;96014.25;;;-1.94;63.17
42847;BME280;75159;49.916;14.536;2024-01-16T22:33:01;96004.78;;;-1.92;62.64
42847;BME280;75159;49.916;14.536;2024-01-16T22:43:24;95984.16;;;-2.05;62.82
42847;BME280;75159;49.916;14.536;2024-01-16T22:53:45;95949.84;;;-2.33;62.35
42847;BME280;75159;49.916;14.536;2024-01-16T23:04:07;95933.19;;;-2.56;61.92
42847;BME280;75159;49.916;14.536;2024-01-16T23:14:27;95937.66;;;-2.43;62.50
42847;BME280;75159;49.916;14.536;2024-01-16T23:24:48;95924.66;;;-2.23;62.59
42847;BME280;75159;49.916;14.536;2024-01-16T23:35:09;95891.03;;;-2.31;62.98
42847;BME280;75159;49.916;14.536;2024-01-16T23:45:30;95878.75;;;-2.24;62.56
42847;BME280;75159;49.916;14.536;2024-01-16T23:55:54;95865.44;;;-2.30;62.38
